sensor_id;sensor_type;location;lat;lon;timestamp;P1;durP1;ratioP1;P2;durP2;ratioP2
70796;SDS011;63842;52.144;5.360;2023-04-05T00:01:27;11.90;;;4.15;;
70796;SDS011;63842;52.144;5.360;2023-04-05T00:03:54;11.82;;;4.32;;
70796;SDS011;63842;52.144;5.360;2023-04-05T00:06:25;9.48;;;4.22;;
70796;SDS011;63842;52.144;5.360;2023-04-05T00:08:54;9.45;;;3.78;;
70796;SDS011;63842;52.144;5.360;2023-04-05T00:11:22;10.80;;;4.10;;
70796;SDS011;63842;52.144;5.360;2023-04-05T00:13:50;9.85;;;4.32;;
70796;SDS011;63842;52.144;5.360;2023-04-05T00:16:17;12.43;;;4.43;;
70796;SDS011;63842;52.144;5.360;2023-04-05T00:18:45;9.30;;;3.63;;
70796;SDS011;63842;52.144;5.360;2023-04-05T00:21:20;9.15;;;3.88;;
70796;SDS011;63842;52.144;5.360;2023-04-05T00:23:48;14.38;;;4.32;;
70796;SDS011;63842;52.144;5.360;2023-04-05T00:26:17;12.68;;;4.20;;
70796;SDS011;63842;52.144;5.360;2023-04-05T00:28:47;10.45;;;3.92;;
70796;SDS011;63842;52.144;5.360;2023-04-05T00:31:15;10.00;;;4.20;;
70796;SDS011;63842;52.144;5.360;2023-04-05T00:33:42;11.07;;;4.25;;
70796;SDS011;63842;52.144;5.360;2023-04-05T00:38:37;13.60;;;4.68;;
70796;SDS011;63842;52.144;5.360;2023-04-05T00:41:05;11.20;;;4.25;;
70796;SDS011;63842;52.144;5.360;2023-04-05T00:43:32;9.55;;;3.90;;
70796;SDS011;63842;52.144;5.360;2023-04-05T00:46:03;10.98;;;3.97;;
70796;SDS011;63842;52.144;5.360;2023-04-05T00:48:30;11.23;;;4.28;;
70796;SDS011;63842;52.144;5.360;2023-04-05T00:50:58;9.13;;;3.97;;
70796;SDS011;63842;52.144;5.360;2023-04-05T00:53:26;12.32;;;4.00;;
70796;SDS011;63842;52.144;5.360;2023-04-05T00:55:53;11.68;;;3.95;;
70796;SDS011;63842;52.144;5.360;2023-04-05T00:58:21;9.30;;;3.92;;
70796;SDS011;63842;52.144;5.360;2023-04-05T01:01:02;11.32;;;4.07;;
70796;SDS011;63842;52.144;5.360;2023-04-05T01:03:33;11.00;;;3.90;;
70796;SDS011;63842;52.144;5.360;2023-04-05T01:11:32;11.93;;;4.13;;
70796;SDS011;63842;52.144;5.360;2023-04-05T01:14:00;8.68;;;4.07;;
70796;SDS011;63842;52.144;5.360;2023-04-05T01:16:30;10.00;;;3.65;;
70796;SDS011;63842;52.144;5.360;2023-04-05T01:18:58;10.63;;;3.83;;
70796;SDS011;63842;52.144;5.360;2023-04-05T01:25:07;10.90;;;4.05;;
70796;SDS011;63842;52.144;5.360;2023-04-05T01:27:10;11.05;;;3.72;;
70796;SDS011;63842;52.144;5.360;2023-04-05T01:29:46;8.68;;;3.55;;
70796;SDS011;63842;52.144;5.360;2023-04-05T01:34:46;10.23;;;3.80;;
70796;SDS011;63842;52.144;5.360;2023-04-05T01:37:17;10.57;;;3.80;;
70796;SDS011;63842;52.144;5.360;2023-04-05T01:39:46;9.60;;;3.67;;
70796;SDS011;63842;52.144;5.360;2023-04-05T01:42:13;10.43;;;3.80;;
70796;SDS011;63842;52.144;5.360;2023-04-05T01:44:40;9.05;;;3.45;;
70796;SDS011;63842;52.144;5.360;2023-04-05T01:47:08;10.68;;;4.15;;
70796;SDS011;63842;52.144;5.360;2023-04-05T01:49:35;12.32;;;3.92;;
70796;SDS011;63842;52.144;5.360;2023-04-05T01:52:03;10.02;;;3.65;;
70796;SDS011;63842;52.144;5.360;2023-04-05T01:54:30;10.30;;;3.80;;
70796;SDS011;63842;52.144;5.360;2023-04-05T01:56:57;10.23;;;3.95;;
70796;SDS011;63842;52.144;5.360;2023-04-05T01:59:25;11.10;;;4.45;;
70796;SDS011;63842;52.144;5.360;2023-04-05T02:01:52;11.40;;;4.30;;
70796;SDS011;63842;52.144;5.360;2023-04-05T02:04:19;10.93;;;3.95;;
70796;SDS011;63842;52.144;5.360;2023-04-05T02:06:46;10.43;;;3.85;;
70796;SDS011;63842;52.144;5.360;2023-04-05T02:09:15;10.75;;;3.85;;
70796;SDS011;63842;52.144;5.360;2023-04-05T02:11:43;10.25;;;4.00;;
70796;SDS011;63842;52.144;5.360;2023-04-05T02:14:11;11.20;;;4.10;;
70796;SDS011;63842;52.144;5.360;2023-04-05T02:16:39;10.73;;;3.90;;
70796;SDS011;63842;52.144;5.360;2023-04-05T02:19:06;10.52;;;4.05;;
70796;SDS011;63842;52.144;5.360;2023-04-05T02:21:34;8.73;;;3.72;;
70796;SDS011;63842;52.144;5.360;2023-04-05T02:24:02;11.70;;;3.88;;
70796;SDS011;63842;52.144;5.360;2023-04-05T02:26:29;9.18;;;3.47;;
70796;SDS011;63842;52.144;5.360;2023-04-05T02:28:56;12.25;;;4.30;;
70796;SDS011;63842;52.144;5.360;2023-04-05T02:31:23;8.98;;;3.97;;
70796;SDS011;63842;52.144;5.360;2023-04-05T02:33:51;10.35;;;4.15;;
70796;SDS011;63842;52.144;5.360;2023-04-05T02:36:19;10.30;;;3.70;;
70796;SDS011;63842;52.144;5.360;2023-04-05T02:38:47;10.80;;;4.15;;
70796;SDS011;63842;52.144;5.360;2023-04-05T02:41:14;8.85;;;3.83;;
70796;SDS011;63842;52.144;5.360;2023-04-05T02:43:42;10.25;;;4.03;;
70796;SDS011;63842;52.144;5.360;2023-04-05T02:46:09;12.07;;;4.53;;
70796;SDS011;63842;52.144;5.360;2023-04-05T02:48:39;10.90;;;4.15;;
70796;SDS011;63842;52.144;5.360;2023-04-05T02:51:08;10.85;;;3.88;;
70796;SDS011;63842;52.144;5.360;2023-04-05T02:53:37;13.77;;;4.72;;
70796;SDS011;63842;52.144;5.360;2023-04-05T02:56:08;9.32;;;3.97;;
70796;SDS011;63842;52.144;5.360;2023-04-05T02:58:41;11.23;;;4.20;;
70796;SDS011;63842;52.144;5.360;2023-04-05T03:01:09;11.40;;;4.13;;
70796;SDS011;63842;52.144;5.360;2023-04-05T03:03:40;11.07;;;4.30;;
70796;SDS011;63842;52.144;5.360;2023-04-05T03:06:07;11.35;;;4.63;;
70796;SDS011;63842;52.144;5.360;2023-04-05T03:08:42;10.60;;;4.25;;
70796;SDS011;63842;52.144;5.360;2023-04-05T03:11:12;9.90;;;4.15;;
70796;SDS011;63842;52.144;5.360;2023-04-05T03:13:44;10.77;;;4.57;;
70796;SDS011;63842;52.144;5.360;2023-04-05T03:16:20;11.07;;;4.70;;
70796;SDS011;63842;52.144;5.360;2023-04-05T03:18:48;10.65;;;4.43;;
70796;SDS011;63842;52.144;5.360;2023-04-05T03:21:15;11.50;;;4.20;;
70796;SDS011;63842;52.144;5.360;2023-04-05T03:23:53;10.98;;;3.97;;
70796;SDS011;63842;52.144;5.360;2023-04-05T03:28:58;11.02;;;4.28;;
70796;SDS011;63842;52.144;5.360;2023-04-05T03:31:31;10.75;;;4.40;;
70796;SDS011;63842;52.144;5.360;2023-04-05T03:34:02;11.68;;;4.70;;
70796;SDS011;63842;52.144;5.360;2023-04-05T03:36:38;12.00;;;4.38;;
70796;SDS011;63842;52.144;5.360;2023-04-05T03:39:34;13.93;;;4.80;;
70796;SDS011;63842;52.144;5.360;2023-04-05T03:42:02;11.85;;;4.50;;
70796;SDS011;63842;52.144;5.360;2023-04-05T03:44:29;12.60;;;5.30;;
70796;SDS011;63842;52.144;5.360;2023-04-05T03:46:57;11.18;;;4.63;;
70796;SDS011;63842;52.144;5.360;2023-04-05T03:49:24;12.48;;;4.28;;
70796;SDS011;63842;52.144;5.360;2023-04-05T03:51:51;12.45;;;4.40;;
70796;SDS011;63842;52.144;5.360;2023-04-05T03:54:19;12.77;;;4.72;;
70796;SDS011;63842;52.144;5.360;2023-04-05T03:59:17;13.77;;;4.80;;
70796;SDS011;63842;52.144;5.360;2023-04-05T04:01:45;11.80;;;4.90;;
70796;SDS011;63842;52.144;5.360;2023-04-05T04:04:13;11.85;;;4.88;;
70796;SDS011;63842;52.144;5.360;2023-04-05T04:06:44;11.70;;;4.90;;
70796;SDS011;63842;52.144;5.360;2023-04-05T04:09:14;10.68;;;4.70;;
70796;SDS011;63842;52.144;5.360;2023-04-05T04:11:42;12.25;;;4.60;;
70796;SDS011;63842;52.144;5.360;2023-04-05T04:14:09;11.65;;;4.78;;
70796;SDS011;63842;52.144;5.360;2023-04-05T04:16:58;13.18;;;5.13;;
70796;SDS011;63842;52.144;5.360;2023-04-05T04:19:51;11.98;;;4.90;;
70796;SDS011;63842;52.144;5.360;2023-04-05T04:22:51;11.30;;;4.70;;
70796;SDS011;63842;52.144;5.360;2023-04-05T04:25:37;10.85;;;4.90;;
70796;SDS011;63842;52.144;5.360;2023-04-05T04:28:25;14.32;;;4.85;;
70796;SDS011;63842;52.144;5.360;2023-04-05T04:31:16;11.63;;;4.50;;
70796;SDS011;63842;52.144;5.360;2023-04-05T04:34:04;13.38;;;5.07;;
70796;SDS011;63842;52.144;5.360;2023-04-05T04:36:42;11.38;;;4.68;;
70796;SDS011;63842;52.144;5.360;2023-04-05T04:39:33;11.35;;;4.80;;
70796;SDS011;63842;52.144;5.360;2023-04-05T04:42:23;13.95;;;5.50;;
70796;SDS011;63842;52.144;5.360;2023-04-05T04:45:14;13.50;;;7.07;;
70796;SDS011;63842;52.144;5.360;2023-04-05T04:47:46;15.43;;;6.65;;
70796;SDS011;63842;52.144;5.360;2023-04-05T04:50:24;11.77;;;5.47;;
70796;SDS011;63842;52.144;5.360;2023-04-05T04:52:52;12.45;;;5.03;;
70796;SDS011;63842;52.144;5.360;2023-04-05T04:55:19;11.82;;;5.05;;
70796;SDS011;63842;52.144;5.360;2023-04-05T04:57:54;10.95;;;5.10;;
70796;SDS011;63842;52.144;5.360;2023-04-05T05:00:22;12.23;;;5.55;;
70796;SDS011;63842;52.144;5.360;2023-04-05T05:02:51;13.38;;;5.20;;
70796;SDS011;63842;52.144;5.360;2023-04-05T05:05:19;12.70;;;4.85;;
70796;SDS011;63842;52.144;5.360;2023-04-05T05:07:49;13.43;;;5.05;;
70796;SDS011;63842;52.144;5.360;2023-04-05T05:10:18;11.30;;;4.68;;
70796;SDS011;63842;52.144;5.360;2023-04-05T05:12:46;14.32;;;5.70;;
70796;SDS011;63842;52.144;5.360;2023-04-05T05:15:17;11.10;;;5.05;;
70796;SDS011;63842;52.144;5.360;2023-04-05T05:17:48;12.95;;;5.03;;
70796;SDS011;63842;52.144;5.360;2023-04-05T05:22:48;14.48;;;5.45;;
70796;SDS011;63842;52.144;5.360;2023-04-05T05:25:16;14.63;;;5.50;;
70796;SDS011;63842;52.144;5.360;2023-04-05T05:27:43;12.63;;;5.10;;
70796;SDS011;63842;52.144;5.360;2023-04-05T05:30:14;12.70;;;5.78;;
70796;SDS011;63842;52.144;5.360;2023-04-05T05:32:41;10.70;;;4.70;;
70796;SDS011;63842;52.144;5.360;2023-04-05T05:35:08;13.32;;;5.15;;
70796;SDS011;63842;52.144;5.360;2023-04-05T05:37:36;11.82;;;5.68;;
70796;SDS011;63842;52.144;5.360;2023-04-05T05:40:15;13.55;;;5.35;;
70796;SDS011;63842;52.144;5.360;2023-04-05T05:42:43;12.95;;;5.15;;
70796;SDS011;63842;52.144;5.360;2023-04-05T05:45:11;18.48;;;9.90;;
70796;SDS011;63842;52.144;5.360;2023-04-05T05:47:38;15.57;;;7.43;;
70796;SDS011;63842;52.144;5.360;2023-04-05T05:50:07;14.70;;;7.05;;
70796;SDS011;63842;52.144;5.360;2023-04-05T05:52:35;14.75;;;6.82;;
70796;SDS011;63842;52.144;5.360;2023-04-05T05:55:02;12.73;;;5.90;;
70796;SDS011;63842;52.144;5.360;2023-04-05T05:57:30;11.82;;;5.38;;
70796;SDS011;63842;52.144;5.360;2023-04-05T06:00:00;14.80;;;5.50;;
70796;SDS011;63842;52.144;5.360;2023-04-05T06:02:36;13.02;;;5.57;;
70796;SDS011;63842;52.144;5.360;2023-04-05T06:05:04;15.68;;;6.28;;
70796;SDS011;63842;52.144;5.360;2023-04-05T06:07:34;14.27;;;5.50;;
70796;SDS011;63842;52.144;5.360;2023-04-05T06:10:01;11.77;;;5.28;;
70796;SDS011;63842;52.144;5.360;2023-04-05T06:12:29;18.60;;;6.60;;
70796;SDS011;63842;52.144;5.360;2023-04-05T06:14:56;16.10;;;5.70;;
70796;SDS011;63842;52.144;5.360;2023-04-05T06:17:24;12.80;;;5.70;;
70796;SDS011;63842;52.144;5.360;2023-04-05T06:19:51;15.35;;;6.07;;
70796;SDS011;63842;52.144;5.360;2023-04-05T06:22:18;13.65;;;6.30;;
70796;SDS011;63842;52.144;5.360;2023-04-05T06:24:48;15.63;;;6.18;;
70796;SDS011;63842;52.144;5.360;2023-04-05T06:27:15;17.02;;;6.30;;
70796;SDS011;63842;52.144;5.360;2023-04-05T06:29:42;13.77;;;6.13;;
70796;SDS011;63842;52.144;5.360;2023-04-05T06:32:10;13.70;;;5.95;;
70796;SDS011;63842;52.144;5.360;2023-04-05T06:34:37;13.40;;;6.50;;
70796;SDS011;63842;52.144;5.360;2023-04-05T06:37:04;12.40;;;5.93;;
70796;SDS011;63842;52.144;5.360;2023-04-05T06:39:32;22.40;;;6.45;;
70796;SDS011;63842;52.144;5.360;2023-04-05T06:41:59;17.05;;;6.25;;
70796;SDS011;63842;52.144;5.360;2023-04-05T06:44:35;17.33;;;6.18;;
70796;SDS011;63842;52.144;5.360;2023-04-05T06:47:03;12.02;;;5.68;;
70796;SDS011;63842;52.144;5.360;2023-04-05T06:49:30;14.82;;;6.28;;
70796;SDS011;63842;52.144;5.360;2023-04-05T06:51:57;13.55;;;5.55;;
70796;SDS011;63842;52.144;5.360;2023-04-05T06:54:25;12.73;;;5.70;;
70796;SDS011;63842;52.144;5.360;2023-04-05T06:56:55;13.52;;;5.97;;
70796;SDS011;63842;52.144;5.360;2023-04-05T06:59:26;12.48;;;5.70;;
70796;SDS011;63842;52.144;5.360;2023-04-05T07:01:54;13.25;;;5.45;;
70796;SDS011;63842;52.144;5.360;2023-04-05T07:04:22;13.00;;;5.65;;
70796;SDS011;63842;52.144;5.360;2023-04-05T07:09:19;13.43;;;5.50;;
70796;SDS011;63842;52.144;5.360;2023-04-05T07:11:47;14.55;;;5.82;;
70796;SDS011;63842;52.144;5.360;2023-04-05T07:14:15;13.18;;;5.60;;
70796;SDS011;63842;52.144;5.360;2023-04-05T07:16:44;13.25;;;5.88;;
70796;SDS011;63842;52.144;5.360;2023-04-05T07:19:13;15.00;;;5.72;;
70796;SDS011;63842;52.144;5.360;2023-04-05T07:21:42;13.00;;;5.30;;
70796;SDS011;63842;52.144;5.360;2023-04-05T07:24:12;12.00;;;5.25;;
70796;SDS011;63842;52.144;5.360;2023-04-05T07:26:39;13.48;;;6.10;;
70796;SDS011;63842;52.144;5.360;2023-04-05T07:29:07;14.52;;;5.97;;
70796;SDS011;63842;52.144;5.360;2023-04-05T07:31:34;11.65;;;5.22;;
70796;SDS011;63842;52.144;5.360;2023-04-05T07:34:02;13.48;;;5.60;;
70796;SDS011;63842;52.144;5.360;2023-04-05T07:36:29;13.13;;;5.50;;
70796;SDS011;63842;52.144;5.360;2023-04-05T07:38:56;13.48;;;5.30;;
70796;SDS011;63842;52.144;5.360;2023-04-05T07:41:24;16.17;;;5.30;;
70796;SDS011;63842;52.144;5.360;2023-04-05T07:43:53;14.77;;;5.80;;
70796;SDS011;63842;52.144;5.360;2023-04-05T07:46:20;12.10;;;4.97;;
70796;SDS011;63842;52.144;5.360;2023-04-05T07:48:47;15.98;;;6.95;;
70796;SDS011;63842;52.144;5.360;2023-04-05T07:51:17;17.55;;;7.97;;
70796;SDS011;63842;52.144;5.360;2023-04-05T07:53:44;15.13;;;6.72;;
70796;SDS011;63842;52.144;5.360;2023-04-05T07:56:12;11.95;;;5.97;;
70796;SDS011;63842;52.144;5.360;2023-04-05T07:58:39;14.70;;;5.90;;
70796;SDS011;63842;52.144;5.360;2023-04-05T08:01:08;12.77;;;5.72;;
70796;SDS011;63842;52.144;5.360;2023-04-05T08:03:35;12.63;;;6.18;;
70796;SDS011;63842;52.144;5.360;2023-04-05T08:06:15;12.48;;;6.18;;
70796;SDS011;63842;52.144;5.360;2023-04-05T08:08:43;12.95;;;5.43;;
70796;SDS011;63842;52.144;5.360;2023-04-05T08:11:11;15.80;;;6.30;;
70796;SDS011;63842;52.144;5.360;2023-04-05T08:13:39;12.88;;;5.63;;
70796;SDS011;63842;52.144;5.360;2023-04-05T08:16:07;12.70;;;5.28;;
70796;SDS011;63842;52.144;5.360;2023-04-05T08:18:35;14.98;;;5.20;;
70796;SDS011;63842;52.144;5.360;2023-04-05T08:21:02;11.70;;;5.20;;
70796;SDS011;63842;52.144;5.360;2023-04-05T08:23:31;12.18;;;5.18;;
70796;SDS011;63842;52.144;5.360;2023-04-05T08:25:59;11.88;;;5.72;;
70796;SDS011;63842;52.144;5.360;2023-04-05T08:28:26;12.13;;;5.55;;
70796;SDS011;63842;52.144;5.360;2023-04-05T08:30:54;13.27;;;5.40;;
70796;SDS011;63842;52.144;5.360;2023-04-05T08:33:23;14.07;;;5.70;;
70796;SDS011;63842;52.144;5.360;2023-04-05T08:35:51;13.90;;;5.22;;
70796;SDS011;63842;52.144;5.360;2023-04-05T08:38:19;13.40;;;5.20;;
70796;SDS011;63842;52.144;5.360;2023-04-05T08:40:46;10.77;;;5.22;;
70796;SDS011;63842;52.144;5.360;2023-04-05T08:46:00;13.15;;;5.20;;
70796;SDS011;63842;52.144;5.360;2023-04-05T08:48:29;10.60;;;4.82;;
70796;SDS011;63842;52.144;5.360;2023-04-05T08:50:57;11.10;;;4.82;;
70796;SDS011;63842;52.144;5.360;2023-04-05T08:53:26;10.05;;;4.05;;
70796;SDS011;63842;52.144;5.360;2023-04-05T08:55:54;13.88;;;5.15;;
70796;SDS011;63842;52.144;5.360;2023-04-05T08:58:26;12.98;;;4.30;;
70796;SDS011;63842;52.144;5.360;2023-04-05T09:00:54;12.23;;;4.40;;
70796;SDS011;63842;52.144;5.360;2023-04-05T09:03:24;9.00;;;3.90;;
70796;SDS011;63842;52.144;5.360;2023-04-05T09:05:52;8.73;;;3.97;;
70796;SDS011;63842;52.144;5.360;2023-04-05T09:08:19;11.70;;;4.45;;
70796;SDS011;63842;52.144;5.360;2023-04-05T09:10:50;10.25;;;3.90;;
70796;SDS011;63842;52.144;5.360;2023-04-05T09:13:17;9.68;;;3.72;;
70796;SDS011;63842;52.144;5.360;2023-04-05T09:15:45;10.15;;;4.15;;
70796;SDS011;63842;52.144;5.360;2023-04-05T09:18:13;10.20;;;3.97;;
70796;SDS011;63842;52.144;5.360;2023-04-05T09:21:04;10.38;;;4.07;;
70796;SDS011;63842;52.144;5.360;2023-04-05T09:23:35;11.57;;;4.07;;
70796;SDS011;63842;52.144;5.360;2023-04-05T09:28:53;12.57;;;4.05;;
70796;SDS011;63842;52.144;5.360;2023-04-05T09:31:39;13.55;;;4.70;;
70796;SDS011;63842;52.144;5.360;2023-04-05T09:34:09;10.23;;;4.70;;
70796;SDS011;63842;52.144;5.360;2023-04-05T09:36:48;11.57;;;4.88;;
70796;SDS011;63842;52.144;5.360;2023-04-05T09:39:16;10.90;;;4.97;;
70796;SDS011;63842;52.144;5.360;2023-04-05T09:42:02;10.20;;;4.43;;
70796;SDS011;63842;52.144;5.360;2023-04-05T09:47:17;10.45;;;4.35;;
70796;SDS011;63842;52.144;5.360;2023-04-05T09:49:46;8.07;;;4.05;;
70796;SDS011;63842;52.144;5.360;2023-04-05T09:52:18;11.25;;;4.10;;
70796;SDS011;63842;52.144;5.360;2023-04-05T09:54:46;11.40;;;4.32;;
70796;SDS011;63842;52.144;5.360;2023-04-05T09:57:14;9.77;;;4.25;;
70796;SDS011;63842;52.144;5.360;2023-04-05T09:59:44;12.02;;;4.55;;
70796;SDS011;63842;52.144;5.360;2023-04-05T10:02:11;10.95;;;4.38;;
70796;SDS011;63842;52.144;5.360;2023-04-05T10:04:39;11.40;;;4.63;;
70796;SDS011;63842;52.144;5.360;2023-04-05T10:07:13;11.15;;;4.68;;
70796;SDS011;63842;52.144;5.360;2023-04-05T10:09:42;11.43;;;4.60;;
70796;SDS011;63842;52.144;5.360;2023-04-05T10:12:11;12.75;;;4.97;;
70796;SDS011;63842;52.144;5.360;2023-04-05T10:14:40;11.73;;;4.82;;
70796;SDS011;63842;52.144;5.360;2023-04-05T10:17:10;11.45;;;5.30;;
70796;SDS011;63842;52.144;5.360;2023-04-05T10:27:50;11.63;;;4.82;;
70796;SDS011;63842;52.144;5.360;2023-04-05T10:30:19;10.55;;;4.95;;
70796;SDS011;63842;52.144;5.360;2023-04-05T10:35:23;13.55;;;4.40;;
70796;SDS011;63842;52.144;5.360;2023-04-05T10:40:52;13.90;;;4.93;;
70796;SDS011;63842;52.144;5.360;2023-04-05T10:43:20;12.43;;;4.90;;
70796;SDS011;63842;52.144;5.360;2023-04-05T10:45:51;10.60;;;4.90;;
70796;SDS011;63842;52.144;5.360;2023-04-05T10:51:06;11.73;;;4.57;;
70796;SDS011;63842;52.144;5.360;2023-04-05T10:53:33;10.80;;;4.72;;
70796;SDS011;63842;52.144;5.360;2023-04-05T10:56:04;10.48;;;4.93;;
70796;SDS011;63842;52.144;5.360;2023-04-05T10:58:31;13.48;;;5.78;;
70796;SDS011;63842;52.144;5.360;2023-04-05T11:01:01;12.63;;;5.57;;
70796;SDS011;63842;52.144;5.360;2023-04-05T11:08:46;10.43;;;5.15;;
70796;SDS011;63842;52.144;5.360;2023-04-05T11:11:15;10.77;;;4.35;;
70796;SDS011;63842;52.144;5.360;2023-04-05T11:13:52;11.30;;;4.78;;
70796;SDS011;63842;52.144;5.360;2023-04-05T11:16:22;12.38;;;5.35;;
70796;SDS011;63842;52.144;5.360;2023-04-05T11:19:03;11.43;;;5.40;;
70796;SDS011;63842;52.144;5.360;2023-04-05T11:21:31;13.02;;;5.05;;
70796;SDS011;63842;52.144;5.360;2023-04-05T11:24:04;15.23;;;5.30;;
70796;SDS011;63842;52.144;5.360;2023-04-05T11:29:07;12.63;;;4.97;;
70796;SDS011;63842;52.144;5.360;2023-04-05T11:31:34;12.68;;;4.90;;
70796;SDS011;63842;52.144;5.360;2023-04-05T11:34:02;10.40;;;4.82;;
70796;SDS011;63842;52.144;5.360;2023-04-05T11:36:36;12.13;;;5.00;;
70796;SDS011;63842;52.144;5.360;2023-04-05T11:41:48;13.23;;;5.30;;
70796;SDS011;63842;52.144;5.360;2023-04-05T11:44:19;13.20;;;4.90;;
70796;SDS011;63842;52.144;5.360;2023-04-05T11:46:47;12.63;;;5.45;;
70796;SDS011;63842;52.144;5.360;2023-04-05T11:49:15;13.20;;;5.57;;
70796;SDS011;63842;52.144;5.360;2023-04-05T11:51:42;11.77;;;5.55;;
70796;SDS011;63842;52.144;5.360;2023-04-05T11:54:14;13.13;;;5.30;;
70796;SDS011;63842;52.144;5.360;2023-04-05T11:56:49;11.77;;;5.18;;
70796;SDS011;63842;52.144;5.360;2023-04-05T11:59:17;10.73;;;5.07;;
70796;SDS011;63842;52.144;5.360;2023-04-05T12:01:44;11.38;;;5.15;;
70796;SDS011;63842;52.144;5.360;2023-04-05T12:04:12;10.45;;;4.75;;
70796;SDS011;63842;52.144;5.360;2023-04-05T12:06:39;12.82;;;5.35;;
70796;SDS011;63842;52.144;5.360;2023-04-05T12:09:07;9.63;;;4.47;;
70796;SDS011;63842;52.144;5.360;2023-04-05T12:11:34;11.13;;;5.10;;
70796;SDS011;63842;52.144;5.360;2023-04-05T12:16:31;13.52;;;5.38;;
70796;SDS011;63842;52.144;5.360;2023-04-05T12:18:59;12.35;;;5.13;;
70796;SDS011;63842;52.144;5.360;2023-04-05T12:21:26;12.02;;;5.10;;
70796;SDS011;63842;52.144;5.360;2023-04-05T12:23:54;11.32;;;5.38;;
70796;SDS011;63842;52.144;5.360;2023-04-05T12:26:21;11.38;;;5.13;;
70796;SDS011;63842;52.144;5.360;2023-04-05T12:31:41;14.25;;;5.38;;
70796;SDS011;63842;52.144;5.360;2023-04-05T12:34:09;13.52;;;5.25;;
70796;SDS011;63842;52.144;5.360;2023-04-05T12:36:37;13.38;;;5.68;;
70796;SDS011;63842;52.144;5.360;2023-04-05T12:39:06;11.40;;;4.97;;
70796;SDS011;63842;52.144;5.360;2023-04-05T12:41:33;15.95;;;5.30;;
70796;SDS011;63842;52.144;5.360;2023-04-05T12:44:07;12.57;;;5.68;;
70796;SDS011;63842;52.144;5.360;2023-04-05T12:46:38;13.38;;;5.03;;
70796;SDS011;63842;52.144;5.360;2023-04-05T12:49:09;11.80;;;5.47;;
70796;SDS011;63842;52.144;5.360;2023-04-05T12:51:47;13.27;;;5.75;;
70796;SDS011;63842;52.144;5.360;2023-04-05T12:54:22;12.05;;;5.38;;
70796;SDS011;63842;52.144;5.360;2023-04-05T12:56:57;13.05;;;5.57;;
70796;SDS011;63842;52.144;5.360;2023-04-05T12:59:30;12.10;;;5.22;;
70796;SDS011;63842;52.144;5.360;2023-04-05T13:01:57;13.70;;;5.55;;
70796;SDS011;63842;52.144;5.360;2023-04-05T13:04:25;12.38;;;5.30;;
70796;SDS011;63842;52.144;5.360;2023-04-05T13:06:54;12.25;;;5.82;;
70796;SDS011;63842;52.144;5.360;2023-04-05T13:09:21;11.68;;;5.72;;
70796;SDS011;63842;52.144;5.360;2023-04-05T13:11:52;14.38;;;5.40;;
70796;SDS011;63842;52.144;5.360;2023-04-05T13:14:19;13.85;;;5.43;;
70796;SDS011;63842;52.144;5.360;2023-04-05T13:16:47;12.23;;;5.47;;
70796;SDS011;63842;52.144;5.360;2023-04-05T13:19:20;14.52;;;5.35;;
70796;SDS011;63842;52.144;5.360;2023-04-05T13:21:50;11.82;;;5.80;;
70796;SDS011;63842;52.144;5.360;2023-04-05T13:24:21;12.02;;;5.30;;
70796;SDS011;63842;52.144;5.360;2023-04-05T13:26:51;11.25;;;5.38;;
70796;SDS011;63842;52.144;5.360;2023-04-05T13:29:19;10.85;;;5.20;;
70796;SDS011;63842;52.144;5.360;2023-04-05T13:31:58;13.63;;;5.28;;
70796;SDS011;63842;52.144;5.360;2023-04-05T13:34:34;12.50;;;5.57;;
70796;SDS011;63842;52.144;5.360;2023-04-05T13:37:02;12.50;;;6.00;;
70796;SDS011;63842;52.144;5.360;2023-04-05T13:39:31;16.15;;;6.10;;
70796;SDS011;63842;52.144;5.360;2023-04-05T13:42:05;13.30;;;5.93;;
70796;SDS011;63842;52.144;5.360;2023-04-05T13:44:58;13.23;;;5.68;;
70796;SDS011;63842;52.144;5.360;2023-04-05T13:47:32;11.23;;;5.50;;
70796;SDS011;63842;52.144;5.360;2023-04-05T13:50:00;12.20;;;5.82;;
70796;SDS011;63842;52.144;5.360;2023-04-05T13:52:28;15.45;;;6.43;;
70796;SDS011;63842;52.144;5.360;2023-04-05T13:54:56;11.80;;;5.43;;
70796;SDS011;63842;52.144;5.360;2023-04-05T13:57:29;12.55;;;5.70;;
70796;SDS011;63842;52.144;5.360;2023-04-05T13:59:56;15.23;;;6.30;;
70796;SDS011;63842;52.144;5.360;2023-04-05T14:02:24;13.02;;;5.63;;
70796;SDS011;63842;52.144;5.360;2023-04-05T14:04:52;12.25;;;5.95;;
70796;SDS011;63842;52.144;5.360;2023-04-05T14:07:22;13.38;;;6.30;;
70796;SDS011;63842;52.144;5.360;2023-04-05T14:09:49;11.27;;;5.32;;
70796;SDS011;63842;52.144;5.360;2023-04-05T14:12:17;15.77;;;6.30;;
70796;SDS011;63842;52.144;5.360;2023-04-05T14:14:44;12.80;;;6.03;;
70796;SDS011;63842;52.144;5.360;2023-04-05T14:17:12;13.40;;;6.57;;
70796;SDS011;63842;52.144;5.360;2023-04-05T14:19:39;15.98;;;6.70;;
70796;SDS011;63842;52.144;5.360;2023-04-05T14:22:10;12.05;;;5.82;;
70796;SDS011;63842;52.144;5.360;2023-04-05T14:24:38;11.90;;;5.35;;
70796;SDS011;63842;52.144;5.360;2023-04-05T14:27:05;11.55;;;5.70;;
70796;SDS011;63842;52.144;5.360;2023-04-05T14:29:33;14.25;;;6.55;;
70796;SDS011;63842;52.144;5.360;2023-04-05T14:32:00;13.30;;;6.38;;
70796;SDS011;63842;52.144;5.360;2023-04-05T14:34:28;13.85;;;6.03;;
70796;SDS011;63842;52.144;5.360;2023-04-05T14:36:56;13.18;;;6.13;;
70796;SDS011;63842;52.144;5.360;2023-04-05T14:39:27;12.13;;;6.10;;
70796;SDS011;63842;52.144;5.360;2023-04-05T14:41:54;14.75;;;6.38;;
70796;SDS011;63842;52.144;5.360;2023-04-05T14:44:24;12.13;;;6.15;;
70796;SDS011;63842;52.144;5.360;2023-04-05T14:46:53;15.32;;;6.30;;
70796;SDS011;63842;52.144;5.360;2023-04-05T14:49:20;13.52;;;6.20;;
70796;SDS011;63842;52.144;5.360;2023-04-05T14:51:48;12.95;;;5.90;;
70796;SDS011;63842;52.144;5.360;2023-04-05T14:54:15;12.88;;;5.57;;
70796;SDS011;63842;52.144;5.360;2023-04-05T14:56:43;13.18;;;5.88;;
70796;SDS011;63842;52.144;5.360;2023-04-05T14:59:12;13.25;;;6.22;;
70796;SDS011;63842;52.144;5.360;2023-04-05T15:01:39;12.23;;;5.90;;
70796;SDS011;63842;52.144;5.360;2023-04-05T15:04:10;13.25;;;6.63;;
70796;SDS011;63842;52.144;5.360;2023-04-05T15:06:37;12.32;;;5.82;;
70796;SDS011;63842;52.144;5.360;2023-04-05T15:09:04;13.77;;;5.80;;
70796;SDS011;63842;52.144;5.360;2023-04-05T15:11:32;13.93;;;6.07;;
70796;SDS011;63842;52.144;5.360;2023-04-05T15:14:04;13.48;;;6.90;;
70796;SDS011;63842;52.144;5.360;2023-04-05T15:16:36;15.23;;;7.18;;
70796;SDS011;63842;52.144;5.360;2023-04-05T15:19:04;11.45;;;5.95;;
70796;SDS011;63842;52.144;5.360;2023-04-05T15:21:32;11.68;;;5.85;;
70796;SDS011;63842;52.144;5.360;2023-04-05T15:23:59;14.90;;;6.70;;
70796;SDS011;63842;52.144;5.360;2023-04-05T15:26:29;13.68;;;5.90;;
70796;SDS011;63842;52.144;5.360;2023-04-05T15:28:56;13.23;;;6.10;;
70796;SDS011;63842;52.144;5.360;2023-04-05T15:31:26;12.05;;;5.88;;
70796;SDS011;63842;52.144;5.360;2023-04-05T15:33:54;14.55;;;5.88;;
70796;SDS011;63842;52.144;5.360;2023-04-05T15:36:22;14.02;;;6.10;;
70796;SDS011;63842;52.144;5.360;2023-04-05T15:38:57;12.68;;;5.75;;
70796;SDS011;63842;52.144;5.360;2023-04-05T15:41:24;13.30;;;6.30;;
70796;SDS011;63842;52.144;5.360;2023-04-05T15:43:55;12.77;;;5.95;;
70796;SDS011;63842;52.144;5.360;2023-04-05T15:46:23;11.65;;;5.93;;
70796;SDS011;63842;52.144;5.360;2023-04-05T15:48:51;14.00;;;6.25;;
70796;SDS011;63842;52.144;5.360;2023-04-05T15:51:18;11.13;;;5.65;;
70796;SDS011;63842;52.144;5.360;2023-04-05T15:53:46;12.65;;;5.97;;
70796;SDS011;63842;52.144;5.360;2023-04-05T15:56:13;12.57;;;6.13;;